Time;durP1;ratioP1;P1;durP2;ratioP2;P2;SDS_P1;SDS_P2;PMS_P1;PMS_P2;Temp;Humidity;BMP_temperature;BMP_pressure;BME280_temperature;BME280_humidity;BME280_pressure;Samples;Min_cycle;Max_cycle;Signal;HPM_P1;HPM_P2
2022/01/07 00:01:37;;;;;;;16.33;3.30;;;5.80;68.00;;;;;;6191689;23;20251;-88
2022/01/07 00:04:03;;;;;;;5.00;3.20;;;6.20;69.20;;;;;;6191931;23;20160;-88
2022/01/07 00:06:29;;;;;;;8.10;3.40;;;6.10;68.00;;;;;;6191912;23;20276;-89
2022/01/07 00:08:55;;;;;;;12.50;3.63;;;6.00;67.60;;;;;;6191195;23;20185;-89
2022/01/07 00:11:21;;;;;;;2.80;2.50;;;5.80;67.40;;;;;;6190788;23;20160;-89
2022/01/07 00:13:47;;;;;;;14.50;4.60;;;5.80;67.30;;;;;;6189651;23;20159;-88
2022/01/07 00:16:12;;;;;;;7.90;3.30;;;5.90;67.40;;;;;;6216137;23;20193;-89
2022/01/07 00:18:41;;;;;;;9.75;2.97;;;6.00;67.50;;;;;;6189731;23;20432;-89
2022/01/07 00:21:07;;;;;;;7.55;3.78;;;5.90;67.10;;;;;;6189259;23;20164;-89
2022/01/07 00:23:34;;;;;;;7.38;3.20;;;6.00;67.60;;;;;;6188846;23;20266;-88
2022/01/07 00:25:59;;;;;;;15.18;4.00;;;6.00;67.40;;;;;;6189554;23;20260;-89
2022/01/07 00:28:25;;;;;;;7.47;3.57;;;6.00;67.80;;;;;;6189829;23;20209;-89
2022/01/07 00:30:51;;;;;;;4.63;3.47;;;6.10;68.20;;;;;;6190785;23;20754;-89
2022/01/07 00:33:17;;;;;;;5.97;2.83;;;6.20;68.60;;;;;;6236801;23;20236;-89
2022/01/07 00:35:43;;;;;;;5.40;2.73;;;6.00;68.40;;;;;;6191354;23;20268;-89
2022/01/07 00:38:09;;;;;;;6.20;2.58;;;5.90;69.00;;;;;;6189079;23;20376;-89
2022/01/07 00:40:35;;;;;;;3.78;2.33;;;6.10;69.50;;;;;;6189349;23;20153;-88
2022/01/07 00:43:07;;;;;;;6.13;2.80;;;6.00;69.60;;;;;;6190462;23;20204;-88
2022/01/07 00:45:33;;;;;;;8.13;3.35;;;6.10;70.40;;;;;;6209021;23;20404;-88
2022/01/07 00:47:59;;;;;;;6.65;2.42;;;6.20;71.10;;;;;;6228308;23;20172;-89
2022/01/07 00:50:28;;;;;;;5.80;3.03;;;5.90;70.50;;;;;;6216019;23;20149;-89
2022/01/07 00:52:54;;;;;;;5.35;2.20;;;6.00;71.00;;;;;;6188544;23;20153;-89
2022/01/07 00:55:20;;;;;;;12.87;4.37;;;6.20;70.90;;;;;;6215106;23;20493;-88
2022/01/07 00:57:46;;;;;;;17.05;3.65;;;6.00;70.50;;;;;;6188698;23;20862;-89
2022/01/07 01:00:15;;;;;;;12.02;3.00;;;6.10;71.70;;;;;;6215252;23;20160;-88
2022/01/07 01:02:42;;;;;;;5.88;2.65;;;5.90;70.50;;;;;;6188803;23;20240;-89
2022/01/07 01:05:10;;;;;;;5.00;2.70;;;6.00;70.80;;;;;;6215368;23;20157;-89
2022/01/07 01:07:36;;;;;;;3.95;2.55;;;5.80;70.70;;;;;;6189209;23;20176;-89
2022/01/07 01:10:06;;;;;;;5.47;2.77;;;6.00;71.70;;;;;;6189345;23;20537;-89
2022/01/07 01:12:32;;;;;;;6.40;2.45;;;6.20;72.30;;;;;;6188228;23;20556;-89
2022/01/07 01:14:58;;;;;;;8.73;2.10;;;6.10;71.80;;;;;;6188489;23;20192;-89
2022/01/07 01:17:23;;;;;;;4.00;2.40;;;6.20;72.50;;;;;;6188858;23;20161;-89
2022/01/07 01:19:49;;;;;;;9.00;3.00;;;6.30;73.00;;;;;;6215887;23;20152;-89
2022/01/07 01:22:15;;;;;;;4.00;2.37;;;6.40;73.50;;;;;;6215637;23;20149;-89
2022/01/07 01:24:41;;;;;;;10.48;4.13;;;6.30;73.70;;;;;;6189621;23;20157;-88
2022/01/07 01:27:07;;;;;;;3.63;2.43;;;6.20;74.10;;;;;;6193651;23;20207;-88
2022/01/07 01:29:33;;;;;;;7.43;3.60;;;6.30;75.00;;;;;;6203909;23;20450;-89
2022/01/07 01:32:00;;;;;;;9.02;3.08;;;6.30;75.90;;;;;;6200778;23;20385;-88
2022/01/07 01:34:27;;;;;;;11.18;3.63;;;6.20;76.80;;;;;;6196223;23;20522;-89
2022/01/07 01:36:53;;;;;;;4.07;3.50;;;5.80;77.30;;;;;;6195135;23;20184;-88
2022/01/07 01:39:18;;;;;;;5.93;4.20;;;5.90;78.60;;;;;;6193489;23;20157;-88
2022/01/07 01:41:45;;;;;;;4.57;3.00;;;6.00;79.40;;;;;;6190799;23;20389;-89
2022/01/07 01:44:11;;;;;;;11.40;3.33;;;6.00;79.50;;;;;;6216248;23;20145;-89
2022/01/07 01:46:37;;;;;;;5.10;3.00;;;6.10;79.80;;;;;;6203789;23;20264;-88
2022/01/07 01:49:04;;;;;;;6.73;3.40;;;6.20;79.90;;;;;;6208468;23;20176;-88
2022/01/07 01:51:30;;;;;;;9.60;5.00;;;6.10;79.80;;;;;;6191335;23;20381;-88
2022/01/07 01:53:56;;;;;;;7.30;3.50;;;6.20;79.70;;;;;;6190834;23;20228;-89
2022/01/07 01:56:36;;;;;;;12.23;4.28;;;6.10;79.80;;;;;;6193081;23;20496;-89
2022/01/07 01:59:02;;;;;;;3.80;3.05;;;6.10;80.10;;;;;;6195118;23;20177;-89
2022/01/07 02:01:28;;;;;;;6.60;4.00;;;6.00;80.20;;;;;;6215800;23;20154;-89
2022/01/07 02:03:54;;;;;;;4.83;3.93;;;6.00;80.60;;;;;;6188310;23;20616;-88
2022/01/07 02:06:20;;;;;;;9.83;5.77;;;5.60;81.00;;;;;;6188697;23;20950;-87
2022/01/07 02:08:46;;;;;;;11.73;4.28;;;5.60;81.80;;;;;;6190213;23;20185;-88
2022/01/07 02:11:11;;;;;;;5.63;4.63;;;5.50;82.40;;;;;;6190650;23;20183;-89
2022/01/07 02:13:37;;;;;;;7.60;4.17;;;5.60;82.80;;;;;;6190354;23;20153;-89
2022/01/07 02:16:03;;;;;;;5.38;4.82;;;5.50;83.00;;;;;;6190552;23;20829;-89
2022/01/07 02:18:29;;;;;;;9.80;4.50;;;5.50;83.00;;;;;;6190915;23;20188;-89
2022/01/07 02:20:55;;;;;;;7.60;4.50;;;5.50;83.20;;;;;;6217868;23;20894;-89
2022/01/07 02:23:21;;;;;;;7.60;4.30;;;5.60;83.60;;;;;;6190500;23;20162;-89
2022/01/07 02:25:47;;;;;;;7.85;4.45;;;5.60;83.80;;;;;;6191851;23;20632;-89
2022/01/07 02:28:13;;;;;;;10.68;5.40;;;5.60;83.80;;;;;;6232168;23;20177;-88
2022/01/07 02:30:39;;;;;;;6.85;5.00;;;5.70;84.00;;;;;;6218629;23;20244;-89
2022/01/07 02:33:05;;;;;;;11.33;4.90;;;5.60;84.20;;;;;;6217234;23;20199;-89
2022/01/07 02:35:34;;;;;;;15.07;5.67;;;5.60;84.50;;;;;;6217197;23;20423;-89
2022/01/07 02:38:00;;;;;;;6.07;4.38;;;5.60;84.70;;;;;;6217500;23;20177;-89
2022/01/07 02:40:26;;;;;;;6.07;4.55;;;5.20;85.00;;;;;;6209689;23;20149;-89
2022/01/07 02:42:52;;;;;;;7.13;4.50;;;5.30;85.80;;;;;;6208978;23;20169;-89
2022/01/07 02:45:18;;;;;;;8.68;4.25;;;5.40;86.10;;;;;;6190427;23;20658;-87
2022/01/07 02:47:50;;;;;;;13.52;5.32;;;5.50;86.20;;;;;;6189954;23;20250;-89
2022/01/07 02:50:30;;;;;;;7.30;4.70;;;5.40;85.80;;;;;;6190462;23;20145;-89
2022/01/07 02:52:57;;;;;;;9.20;4.85;;;5.20;86.00;;;;;;6190306;23;20145;-89
2022/01/07 02:55:25;;;;;;;7.10;4.88;;;5.20;86.20;;;;;;6189696;23;20170;-89
2022/01/07 02:57:52;;;;;;;5.40;4.57;;;5.20;86.50;;;;;;6190331;23;20694;-89
2022/01/07 03:00:19;;;;;;;11.75;4.95;;;5.40;86.40;;;;;;6218317;23;20180;-89
2022/01/07 03:02:46;;;;;;;7.13;4.80;;;5.50;86.50;;;;;;6191964;23;20218;-89
2022/01/07 03:05:13;;;;;;;7.30;4.63;;;5.60;86.20;;;;;;6191518;23;20157;-89
2022/01/07 03:07:39;;;;;;;8.77;4.72;;;5.60;86.10;;;;;;6191030;23;20315;-89
2022/01/07 03:10:07;;;;;;;9.27;5.70;;;5.40;85.30;;;;;;6190780;23;20596;-89
2022/01/07 03:12:36;;;;;;;7.45;5.40;;;5.60;85.50;;;;;;6190470;23;20161;-89
2022/01/07 03:15:04;;;;;;;10.60;5.50;;;5.50;85.20;;;;;;6190648;23;20185;-89
2022/01/07 03:17:31;;;;;;;10.35;5.63;;;5.60;85.30;;;;;;6190821;23;20172;-89
2022/01/07 03:19:57;;;;;;;8.70;5.72;;;5.60;85.00;;;;;;6191237;23;20153;-89
2022/01/07 03:22:23;;;;;;;8.10;5.85;;;5.60;84.90;;;;;;6190307;23;20593;-89
2022/01/07 03:24:49;;;;;;;7.05;5.30;;;5.60;84.60;;;;;;6189796;23;20613;-89
2022/01/07 03:27:14;;;;;;;13.50;5.43;;;5.70;84.60;;;;;;6189792;23;20191;-89
2022/01/07 03:29:40;;;;;;;7.93;4.53;;;5.80;84.50;;;;;;6190975;23;20377;-89
2022/01/07 03:32:06;;;;;;;8.07;5.10;;;5.80;84.30;;;;;;6192479;23;20396;-88
2022/01/07 03:34:32;;;;;;;10.30;6.45;;;5.80;84.10;;;;;;6189132;23;20619;-89
2022/01/07 03:36:58;;;;;;;6.20;4.97;;;5.80;84.00;;;;;;6190306;23;20177;-88
2022/01/07 03:39:23;;;;;;;7.57;6.10;;;5.80;84.00;;;;;;6190506;23;20188;-88
2022/01/07 03:41:49;;;;;;;8.73;5.60;;;5.90;84.20;;;;;;6189957;23;20165;-89
2022/01/07 03:44:15;;;;;;;7.93;5.73;;;6.00;84.10;;;;;;6189061;23;20245;-88
2022/01/07 03:46:40;;;;;;;10.97;5.80;;;5.90;83.70;;;;;;6189848;23;20200;-88
2022/01/07 03:49:06;;;;;;;11.50;6.00;;;6.00;83.80;;;;;;6191349;23;20153;-88
2022/01/07 03:51:32;;;;;;;8.40;5.30;;;6.10;84.10;;;;;;6190413;23;20160;-88
2022/01/07 03:53:57;;;;;;;9.00;5.67;;;6.20;84.00;;;;;;6189757;23;20216;-88
2022/01/07 03:56:23;;;;;;;10.20;5.73;;;6.10;83.80;;;;;;6190535;23;20173;-88
2022/01/07 03:58:49;;;;;;;9.57;5.50;;;6.10;83.70;;;;;;6216433;23;20611;-88
2022/01/07 04:01:15;;;;;;;7.70;6.07;;;6.20;83.70;;;;;;6189596;23;20169;-88
2022/01/07 04:03:40;;;;;;;20.50;7.13;;;6.10;83.70;;;;;;6216491;23;20376;-87
2022/01/07 04:06:06;;;;;;;6.90;5.63;;;6.00;83.20;;;;;;6189651;23;20192;-88
2022/01/07 04:08:32;;;;;;;8.30;5.37;;;6.10;83.40;;;;;;6189606;23;20208;-88
2022/01/07 04:10:57;;;;;;;12.47;6.30;;;6.10;83.40;;;;;;6189864;23;20260;-89
2022/01/07 04:13:23;;;;;;;10.63;6.63;;;6.00;83.40;;;;;;6189147;23;20471;-88
2022/01/07 04:15:49;;;;;;;14.20;7.17;;;6.10;83.60;;;;;;6216676;23;20169;-89
2022/01/07 04:18:14;;;;;;;10.00;6.83;;;6.20;83.40;;;;;;6218475;23;20168;-88
2022/01/07 04:20:40;;;;;;;9.10;6.77;;;6.00;83.30;;;;;;6221305;23;20149;-88
2022/01/07 04:23:07;;;;;;;9.83;6.53;;;6.20;83.50;;;;;;6207143;23;20157;-88
2022/01/07 04:25:33;;;;;;;10.55;6.38;;;6.30;83.50;;;;;;6193515;23;20177;-87
2022/01/07 04:28:01;;;;;;;12.23;6.68;;;6.30;83.30;;;;;;6219714;23;20296;-88
2022/01/07 04:30:30;;;;;;;8.85;6.20;;;6.10;82.70;;;;;;6220971;23;20216;-88
2022/01/07 04:32:56;;;;;;;19.83;7.72;;;6.20;83.00;;;;;;6226122;23;20173;-88
2022/01/07 04:35:22;;;;;;;10.95;6.55;;;6.20;83.10;;;;;;6206157;23;20188;-88
2022/01/07 04:37:48;;;;;;;12.02;6.40;;;6.20;83.10;;;;;;6209424;23;20181;-87
2022/01/07 04:40:16;;;;;;;10.47;7.50;;;6.20;83.00;;;;;;6195765;23;20153;-87
2022/01/07 04:42:41;;;;;;;9.20;6.50;;;6.40;83.20;;;;;;6188310;23;20380;-88
2022/01/07 04:45:08;;;;;;;11.67;6.50;;;6.40;82.90;;;;;;6188455;23;20235;-87
2022/01/07 04:47:36;;;;;;;11.23;6.82;;;6.30;82.80;;;;;;6188679;23;20250;-87
2022/01/07 04:50:07;;;;;;;9.68;6.28;;;6.40;82.80;;;;;;6188796;23;20289;-87
2022/01/07 04:52:33;;;;;;;8.00;6.55;;;6.30;82.80;;;;;;6215279;23;20208;-88
2022/01/07 04:54:59;;;;;;;8.00;6.70;;;6.40;82.80;;;;;;6188864;23;20619;-88
2022/01/07 04:57:25;;;;;;;13.52;6.85;;;6.40;82.80;;;;;;6188681;23;20439;-87
2022/01/07 04:59:51;;;;;;;7.05;6.35;;;6.50;82.80;;;;;;6188806;23;20162;-87
2022/01/07 05:02:20;;;;;;;7.83;5.50;;;6.30;82.20;;;;;;6217367;23;20485;-87
2022/01/07 05:04:47;;;;;;;9.40;5.60;;;6.40;82.50;;;;;;6190410;23;20418;-88
2022/01/07 05:07:12;;;;;;;8.73;6.15;;;6.50;82.70;;;;;;6189148;23;20200;-88
2022/01/07 05:09:38;;;;;;;12.55;6.65;;;6.50;82.60;;;;;;6188784;23;20172;-87
2022/01/07 05:12:04;;;;;;;9.23;6.33;;;6.50;82.40;;;;;;6189177;23;20158;-88
2022/01/07 05:14:30;;;;;;;9.60;7.05;;;6.60;82.50;;;;;;6188763;23;20216;-88
2022/01/07 05:16:56;;;;;;;16.27;7.20;;;6.70;82.50;;;;;;6192289;23;20172;-88
2022/01/07 05:19:22;;;;;;;10.75;6.13;;;6.60;82.30;;;;;;6190914;23;20153;-87
2022/01/07 05:21:48;;;;;;;17.50;7.77;;;6.70;82.40;;;;;;6194853;23;20184;-88
2022/01/07 05:24:14;;;;;;;9.17;6.60;;;6.60;82.20;;;;;;6203329;23;20452;-88
2022/01/07 05:26:39;;;;;;;10.43;7.37;;;6.80;82.30;;;;;;6232291;23;20412;-88
2022/01/07 05:29:05;;;;;;;11.43;6.60;;;6.60;82.00;;;;;;6216275;23;20416;-88
2022/01/07 05:31:31;;;;;;;10.20;7.07;;;6.50;82.70;;;;;;6190618;23;20165;-88
2022/01/07 05:33:57;;;;;;;13.70;6.85;;;6.50;82.00;;;;;;6191087;23;20408;-88
2022/01/07 05:36:23;;;;;;;13.57;6.77;;;6.50;82.30;;;;;;6196090;23;20180;-88
2022/01/07 05:38:50;;;;;;;13.27;6.67;;;6.60;82.40;;;;;;6188857;23;20380;-88
2022/01/07 05:41:16;;;;;;;10.40;6.50;;;6.50;82.40;;;;;;6189149;23;20767;-87
2022/01/07 05:43:42;;;;;;;8.50;6.03;;;6.60;82.60;;;;;;6187356;23;20161;-87
2022/01/07 05:46:10;;;;;;;8.90;5.47;;;6.60;82.40;;;;;;6188617;23;20508;-88
2022/01/07 05:48:36;;;;;;;17.98;7.68;;;6.60;82.20;;;;;;6188993;23;20435;-87
2022/01/07 05:51:02;;;;;;;9.45;7.30;;;6.60;82.20;;;;;;6188760;23;20153;-87
2022/01/07 05:53:28;;;;;;;8.93;5.90;;;6.60;82.40;;;;;;6188220;23;20153;-88
2022/01/07 05:55:54;;;;;;;7.40;4.93;;;6.60;82.40;;;;;;6215385;23;20176;-88
2022/01/07 05:58:19;;;;;;;9.20;6.23;;;6.70;82.40;;;;;;6216648;23;20157;-88
2022/01/07 06:00:45;;;;;;;12.83;6.80;;;6.70;82.40;;;;;;6189091;23;20553;-88
2022/01/07 06:03:11;;;;;;;7.10;5.33;;;6.70;82.20;;;;;;6189722;23;20157;-88
2022/01/07 06:05:37;;;;;;;10.03;6.70;;;6.70;82.40;;;;;;6189813;23;20272;-88
2022/01/07 06:08:02;;;;;;;9.10;6.23;;;6.80;82.30;;;;;;6191076;23;20180;-87
2022/01/07 06:10:28;;;;;;;7.40;5.67;;;6.80;82.00;;;;;;6216785;23;20217;-88
2022/01/07 06:12:54;;;;;;;7.47;5.40;;;6.70;82.00;;;;;;6189291;23;20376;-87
2022/01/07 06:15:19;;;;;;;8.80;5.67;;;6.60;81.80;;;;;;6198360;23;20173;-88
2022/01/07 06:17:45;;;;;;;12.47;6.07;;;6.50;82.00;;;;;;6211158;23;20157;-87
2022/01/07 06:20:11;;;;;;;11.23;6.30;;;6.40;82.20;;;;;;6195677;23;20161;-87
2022/01/07 06:22:37;;;;;;;8.18;5.15;;;6.60;82.40;;;;;;6188619;23;20161;-88
2022/01/07 06:25:05;;;;;;;9.20;6.67;;;6.60;82.30;;;;;;6189688;23;20516;-87
2022/01/07 06:27:31;;;;;;;9.23;6.55;;;6.70;82.30;;;;;;6192869;23;20178;-88
2022/01/07 06:29:57;;;;;;;6.38;5.03;;;6.70;82.20;;;;;;6205846;23;20163;-88
2022/01/07 06:32:24;;;;;;;14.37;6.33;;;6.60;82.10;;;;;;6210837;23;20162;-88
2022/01/07 06:34:51;;;;;;;7.97;5.72;;;6.70;82.10;;;;;;6190605;23;20384;-87
2022/01/07 06:37:16;;;;;;;9.30;6.65;;;6.60;82.00;;;;;;6189275;23;20667;-87
2022/01/07 06:39:42;;;;;;;6.27;5.63;;;6.70;82.30;;;;;;6190215;23;20161;-87
2022/01/07 06:42:08;;;;;;;6.30;4.83;;;6.90;82.30;;;;;;6189822;23;20416;-87
2022/01/07 06:44:35;;;;;;;17.45;6.50;;;6.70;82.10;;;;;;6189283;23;20177;-88
2022/01/07 06:47:01;;;;;;;6.78;4.78;;;6.70;82.10;;;;;;6189522;23;20260;-87
2022/01/07 06:49:27;;;;;;;17.60;6.60;;;6.80;81.80;;;;;;6191001;23;20191;-87
2022/01/07 06:51:54;;;;;;;6.63;6.00;;;6.80;81.80;;;;;;6189852;23;20154;-87
2022/01/07 06:54:19;;;;;;;6.53;5.78;;;6.70;81.90;;;;;;6189373;23;20412;-87
2022/01/07 06:56:46;;;;;;;11.30;6.23;;;6.70;81.80;;;;;;6190451;23;20185;-87
2022/01/07 06:59:12;;;;;;;8.85;5.10;;;6.70;82.00;;;;;;6190706;23;20391;-87
2022/01/07 07:01:42;;;;;;;7.90;5.93;;;6.70;82.00;;;;;;6192048;23;20584;-87
2022/01/07 07:04:08;;;;;;;13.00;5.05;;;6.70;82.00;;;;;;6189896;23;20207;-87
2022/01/07 07:06:34;;;;;;;8.23;5.30;;;6.80;82.00;;;;;;6190617;23;20197;-87
2022/01/07 07:09:01;;;;;;;8.05;6.40;;;6.70;82.00;;;;;;6190792;23;20192;-87
2022/01/07 07:11:27;;;;;;;10.00;5.72;;;6.80;82.00;;;;;;6192309;23;20163;-87
2022/01/07 07:13:53;;;;;;;12.93;6.90;;;6.70;82.10;;;;;;6194982;23;20178;-88
2022/01/07 07:16:19;;;;;;;8.57;5.93;;;6.90;82.20;;;;;;6194333;23;20713;-87
2022/01/07 07:18:44;;;;;;;9.43;5.30;;;6.80;82.10;;;;;;6192531;23;20168;-87
2022/01/07 07:21:10;;;;;;;14.10;6.27;;;6.80;82.10;;;;;;6219120;23;20227;-87
2022/01/07 07:23:36;;;;;;;8.23;5.83;;;6.80;82.00;;;;;;6190698;23;20161;-87
2022/01/07 07:26:01;;;;;;;9.77;5.53;;;6.80;82.00;;;;;;6192536;23;20177;-87
2022/01/07 07:28:27;;;;;;;20.20;6.03;;;6.80;81.90;;;;;;6218454;23;20204;-87
2022/01/07 07:30:56;;;;;;;15.33;5.70;;;6.80;81.90;;;;;;6217690;23;20145;-87
2022/01/07 07:38:37;;;;;;;11.02;6.38;;;6.90;82.00;;;;;;6217171;23;20489;-87
2022/01/07 07:41:03;;;;;;;9.05;5.97;;;6.80;81.80;;;;;;6190235;23;20184;-86
2022/01/07 07:43:29;;;;;;;13.77;7.00;;;6.90;81.70;;;;;;6189996;23;20162;-88
2022/01/07 07:45:55;;;;;;;8.23;5.40;;;6.70;81.50;;;;;;6189189;23;20179;-87
2022/01/07 07:48:24;;;;;;;6.70;5.90;;;6.80;81.90;;;;;;6189332;23;20511;-87
2022/01/07 07:50:50;;;;;;;15.52;6.07;;;6.90;81.90;;;;;;6189798;23;20221;-87
2022/01/07 07:53:16;;;;;;;8.37;4.93;;;6.80;81.70;;;;;;6189679;23;20160;-87
2022/01/07 07:55:41;;;;;;;9.40;5.93;;;6.90;82.00;;;;;;6215672;23;20388;-87
2022/01/07 07:58:07;;;;;;;9.63;5.77;;;7.00;81.90;;;;;;6216533;23;20470;-86
2022/01/07 08:00:33;;;;;;;13.40;5.37;;;7.00;81.80;;;;;;6189719;23;20439;-87
2022/01/07 08:02:59;;;;;;;5.67;4.67;;;6.80;81.40;;;;;;6189121;23;20168;-88
2022/01/07 08:05:24;;;;;;;10.20;6.27;;;6.70;81.60;;;;;;6216745;23;20207;-88
2022/01/07 08:07:50;;;;;;;9.97;5.63;;;6.70;81.80;;;;;;6221767;23;20220;-88
2022/01/07 08:10:22;;;;;;;5.60;4.60;;;6.80;82.00;;;;;;6193868;23;20829;-88
2022/01/07 08:13:26;;;;;;;16.98;6.15;;;6.80;82.00;;;;;;6189339;23;20493;-88
2022/01/07 08:16:01;;;;;;;16.83;5.43;;;6.80;81.90;;;;;;6215564;23;20242;-89
2022/01/07 08:18:36;;;;;;;8.38;5.13;;;6.80;82.00;;;;;;6217037;23;20165;-86
2022/01/07 08:21:05;;;;;;;10.10;5.40;;;6.80;81.90;;;;;;6189403;23;20184;-88
2022/01/07 08:23:32;;;;;;;9.32;5.80;;;6.70;82.00;;;;;;6219419;23;20176;-89
2022/01/07 08:25:58;;;;;;;8.80;5.07;;;6.80;82.00;;;;;;6221031;23;20219;-88
2022/01/07 08:28:28;;;;;;;9.68;4.88;;;6.80;82.00;;;;;;6190104;23;20262;-88
2022/01/07 08:36:31;;;;;;;11.75;4.60;;;6.80;81.80;;;;;;6216520;23;20203;-88
2022/01/07 08:38:58;;;;;;;6.50;5.00;;;6.60;81.80;;;;;;6190584;23;20212;-87
2022/01/07 08:41:27;;;;;;;8.45;4.53;;;6.70;82.10;;;;;;6190269;23;20203;-88
2022/01/07 08:43:53;;;;;;;10.20;3.85;;;6.70;82.20;;;;;;6190059;23;20492;-88
2022/01/07 08:46:19;;;;;;;5.60;4.63;;;6.70;82.10;;;;;;6190674;23;20620;-88
2022/01/07 08:48:45;;;;;;;4.47;4.07;;;6.80;82.20;;;;;;6190031;23;20181;-88
2022/01/07 08:51:11;;;;;;;12.20;4.47;;;6.80;82.10;;;;;;6191317;23;20185;-88
2022/01/07 08:53:37;;;;;;;4.55;4.05;;;6.90;82.00;;;;;;6198670;23;20446;-88
2022/01/07 08:56:05;;;;;;;9.70;3.83;;;6.90;81.80;;;;;;6207244;23;20200;-88
2022/01/07 08:58:31;;;;;;;10.85;4.95;;;6.90;81.70;;;;;;6208082;23;20192;-89
2022/01/07 09:00:56;;;;;;;9.10;3.63;;;6.80;81.40;;;;;;6236522;23;20149;-88
2022/01/07 09:03:23;;;;;;;7.13;4.20;;;6.80;81.30;;;;;;6207526;23;20165;-89
2022/01/07 09:05:50;;;;;;;8.30;4.18;;;6.70;81.40;;;;;;6199991;23;20256;-89
2022/01/07 09:08:15;;;;;;;12.40;3.33;;;6.60;81.40;;;;;;6202663;23;20240;-88
2022/01/07 09:10:42;;;;;;;4.80;3.10;;;6.60;81.30;;;;;;6199282;23;20212;-89
2022/01/07 09:13:09;;;;;;;8.02;3.45;;;6.70;81.60;;;;;;6195704;23;20917;-89
2022/01/07 09:15:36;;;;;;;3.78;3.00;;;6.80;81.70;;;;;;6195889;23;20682;-89
2022/01/07 09:18:12;;;;;;;5.75;3.03;;;6.70;81.70;;;;;;6191131;23;20153;-89
2022/01/07 09:20:38;;;;;;;6.00;3.40;;;6.60;81.80;;;;;;6189776;23;20477;-89
2022/01/07 09:23:05;;;;;;;10.60;3.15;;;6.60;81.90;;;;;;6189122;23;20168;-89
2022/01/07 09:25:30;;;;;;;6.22;2.85;;;6.50;82.00;;;;;;6192479;23;20254;-88
2022/01/07 09:27:56;;;;;;;6.17;3.03;;;6.50;82.20;;;;;;6191181;23;20188;-89
2022/01/07 09:30:23;;;;;;;9.93;2.47;;;6.70;82.40;;;;;;6191709;23;20188;-88
2022/01/07 09:32:49;;;;;;;5.13;2.90;;;6.70;82.50;;;;;;6215794;23;20146;-88
2022/01/07 09:35:16;;;;;;;5.50;3.40;;;6.70;82.30;;;;;;6188985;23;20176;-87
2022/01/07 09:37:42;;;;;;;15.98;4.10;;;6.60;82.30;;;;;;6189284;23;20153;-88
2022/01/07 09:40:09;;;;;;;6.30;3.22;;;6.60;82.40;;;;;;6219063;23;20220;-88
2022/01/07 09:42:34;;;;;;;11.65;3.17;;;6.60;82.40;;;;;;6189463;23;20192;-88
2022/01/07 09:45:00;;;;;;;11.70;3.07;;;6.70;82.50;;;;;;6190941;23;20154;-89
2022/01/07 09:47:27;;;;;;;8.53;3.20;;;6.80;82.30;;;;;;6216359;23;20533;-89
2022/01/07 09:49:53;;;;;;;7.40;3.50;;;6.90;82.30;;;;;;6189304;23;20494;-89
2022/01/07 09:52:19;;;;;;;9.13;3.80;;;7.00;82.10;;;;;;6190478;23;20157;-89
2022/01/07 09:54:47;;;;;;;9.00;3.50;;;7.00;82.00;;;;;;6190026;23;20384;-88
2022/01/07 09:57:13;;;;;;;14.90;4.68;;;6.90;82.50;;;;;;6193282;23;20412;-89
2022/01/07 09:59:39;;;;;;;7.40;3.90;;;6.90;81.90;;;;;;6194941;23;20165;-88
2022/01/07 10:02:07;;;;;;;5.43;3.33;;;7.00;81.60;;;;;;6212863;23;20381;-89
2022/01/07 10:04:34;;;;;;;9.35;4.13;;;7.10;81.70;;;;;;6194343;23;20157;-88
2022/01/07 10:07:21;;;;;;;6.47;3.38;;;7.10;81.50;;;;;;6189273;23;20197;-89
2022/01/07 10:09:56;;;;;;;5.43;3.53;;;7.10;81.70;;;;;;6190844;23;20160;-89
2022/01/07 10:13:07;;;;;;;5.80;3.42;;;7.10;81.60;;;;;;6192114;23;20160;-88
2022/01/07 10:15:35;;;;;;;5.53;3.70;;;6.90;81.80;;;;;;6231503;23;20185;-89
2022/01/07 10:18:04;;;;;;;7.07;4.28;;;7.10;82.80;;;;;;6193655;23;20664;-89
2022/01/07 10:20:45;;;;;;;8.95;3.75;;;6.80;82.30;;;;;;6189973;23;20157;-89
2022/01/07 10:23:13;;;;;;;11.55;4.65;;;6.70;82.50;;;;;;6189415;23;20232;-89
2022/01/07 10:25:44;;;;;;;9.02;4.10;;;6.70;82.70;;;;;;6217050;23;20177;-89
2022/01/07 10:28:18;;;;;;;5.15;3.67;;;6.80;82.90;;;;;;6190049;23;20203;-88
2022/01/07 10:30:47;;;;;;;9.15;4.38;;;6.80;82.90;;;;;;6192512;23;20141;-89
2022/01/07 10:33:17;;;;;;;8.48;3.80;;;6.80;83.00;;;;;;6191632;23;20511;-88
2022/01/07 10:35:45;;;;;;;6.70;2.95;;;6.80;83.20;;;;;;6193125;23;20180;-90
2022/01/07 10:38:16;;;;;;;17.45;3.95;;;6.80;83.20;;;;;;6192932;23;20618;-89
2022/01/07 10:40:42;;;;;;;5.25;3.35;;;6.90;83.20;;;;;;6191472;23;20200;-91
2022/01/07 10:43:18;;;;;;;16.02;4.00;;;7.00;83.00;;;;;;6191764;23;20233;-89
2022/01/07 10:45:51;;;;;;;5.13;4.07;;;7.30;82.80;;;;;;6193661;23;20623;-89
2022/01/07 10:48:18;;;;;;;9.02;4.35;;;7.40;82.50;;;;;;6193089;23;20243;-89
2022/01/07 10:50:50;;;;;;;8.02;4.82;;;7.40;81.50;;;;;;6193257;23;20246;-89
2022/01/07 10:53:29;;;;;;;9.00;4.75;;;7.60;82.10;;;;;;6196118;23;20149;-89
2022/01/07 10:56:03;;;;;;;18.65;6.45;;;7.80;81.90;;;;;;6218092;23;20165;-89
2022/01/07 10:58:39;;;;;;;13.40;6.30;;;7.90;81.40;;;;;;6191490;23;20209;-90
2022/01/07 11:01:05;;;;;;;12.98;6.43;;;7.80;81.10;;;;;;6192320;23;20156;-89
2022/01/07 11:03:33;;;;;;;12.63;6.10;;;7.80;80.80;;;;;;6191700;23;20185;-89
2022/01/07 11:06:02;;;;;;;11.00;5.85;;;7.90;80.80;;;;;;6196862;23;20252;-89
2022/01/07 11:08:27;;;;;;;10.68;4.80;;;8.00;80.50;;;;;;6191571;23;20261;-89
2022/01/07 11:10:55;;;;;;;10.70;5.43;;;8.10;80.40;;;;;;6217431;23;20177;-89
2022/01/07 11:13:21;;;;;;;8.25;4.70;;;8.30;80.00;;;;;;6191124;23;20149;-90
2022/01/07 11:15:47;;;;;;;10.70;5.95;;;8.20;79.50;;;;;;6190747;23;20200;-90
2022/01/07 11:18:12;;;;;;;13.27;4.90;;;8.30;79.50;;;;;;6191597;23;20592;-89
2022/01/07 11:20:39;;;;;;;6.90;4.40;;;8.50;79.40;;;;;;6217322;23;20149;-88
2022/01/07 11:23:05;;;;;;;9.10;4.53;;;8.30;78.70;;;;;;6217368;23;20157;-88
2022/01/07 11:25:34;;;;;;;12.20;4.82;;;8.40;78.50;;;;;;6190093;23;20513;-88
2022/01/07 11:28:00;;;;;;;8.38;3.92;;;8.50;78.40;;;;;;6190201;23;20195;-88
2022/01/07 11:30:33;;;;;;;10.07;4.60;;;8.30;78.20;;;;;;6190525;23;20651;-88
2022/01/07 11:33:00;;;;;;;20.50;5.45;;;8.50;78.40;;;;;;6190748;23;20462;-88
2022/01/07 11:35:45;;;;;;;14.13;4.53;;;8.50;77.90;;;;;;6190565;23;20777;-88
2022/01/07 11:38:30;;;;;;;15.40;5.00;;;8.40;77.50;;;;;;6193901;23;20611;-88
2022/01/07 11:40:56;;;;;;;10.40;3.90;;;8.30;77.60;;;;;;6219413;23;20137;-88
2022/01/07 11:43:21;;;;;;;8.20;3.10;;;8.50;77.60;;;;;;6217722;23;20187;-90
2022/01/07 11:45:47;;;;;;;6.00;4.00;;;8.60;77.50;;;;;;6190331;23;20487;-88
2022/01/07 11:48:22;;;;;;;7.97;3.85;;;8.50;77.10;;;;;;6190688;23;20177;-88
2022/01/07 11:51:00;;;;;;;8.82;3.40;;;8.40;77.00;;;;;;6217412;23;20133;-89
2022/01/07 11:53:35;;;;;;;5.00;3.10;;;8.50;77.10;;;;;;6231985;23;20149;-89
2022/01/07 11:56:03;;;;;;;7.95;4.60;;;8.60;76.70;;;;;;6208132;23;20608;-89
2022/01/07 11:58:47;;;;;;;14.35;3.50;;;8.60;76.50;;;;;;6191856;23;20224;-88
2022/01/07 12:01:37;;;;;;;6.20;3.40;;;8.80;76.70;;;;;;6192321;23;20153;-88
2022/01/07 12:04:27;;;;;;;7.80;3.03;;;8.90;76.70;;;;;;6187102;23;20161;-89
2022/01/07 12:06:57;;;;;;;5.85;2.72;;;9.00;76.40;;;;;;6206963;23;20197;-89
2022/01/07 12:09:31;;;;;;;15.25;3.72;;;8.90;75.80;;;;;;6194394;23;20164;-89
2022/01/07 12:12:07;;;;;;;5.47;3.72;;;8.70;75.20;;;;;;6217501;23;20156;-89
2022/01/07 12:14:37;;;;;;;15.73;3.10;;;8.80;75.20;;;;;;6191302;23;20199;-89
2022/01/07 12:17:05;;;;;;;4.10;2.75;;;8.70;74.90;;;;;;6191701;23;20173;-89
2022/01/07 12:19:37;;;;;;;6.90;3.15;;;8.70;75.20;;;;;;6191666;23;20659;-87
2022/01/07 12:22:07;;;;;;;6.70;2.80;;;8.70;75.20;;;;;;6191669;23;20185;-87
2022/01/07 12:24:33;;;;;;;4.72;2.78;;;8.60;75.20;;;;;;6221815;23;20133;-87
2022/01/07 12:27:02;;;;;;;12.88;3.55;;;8.70;75.60;;;;;;6192626;23;20173;-88
2022/01/07 12:29:31;;;;;;;8.93;3.85;;;8.70;75.70;;;;;;6194009;23;20735;-88
2022/01/07 12:31:57;;;;;;;7.15;2.80;;;8.70;75.40;;;;;;6197167;23;20154;-88
2022/01/07 12:34:29;;;;;;;5.05;3.40;;;8.70;75.40;;;;;;6198350;23;20157;-88
2022/01/07 12:37:09;;;;;;;7.63;3.22;;;8.70;75.40;;;;;;6218758;23;20165;-88
2022/01/07 12:39:44;;;;;;;4.40;3.38;;;8.90;75.50;;;;;;6192077;23;20224;-88
2022/01/07 12:42:10;;;;;;;6.05;3.72;;;8.70;75.10;;;;;;6193257;23;20149;-88
2022/01/07 12:44:43;;;;;;;6.60;3.50;;;8.80;75.10;;;;;;6194489;23;20242;-88
2022/01/07 12:47:12;;;;;;;8.70;3.10;;;8.70;74.90;;;;;;6198514;23;20439;-88
2022/01/07 12:49:46;;;;;;;6.88;3.03;;;8.60;75.00;;;;;;6193605;23;20153;-88
2022/01/07 12:52:20;;;;;;;7.45;2.75;;;8.70;75.10;;;;;;6217491;23;20267;-87
2022/01/07 12:55:17;;;;;;;7.40;4.60;;;8.70;74.90;;;;;;6191549;23;20264;-87
2022/01/07 12:57:50;;;;;;;3.50;3.10;;;8.70;74.90;;;;;;6190565;23;20154;-87
2022/01/07 13:00:23;;;;;;;11.73;3.20;;;8.70;74.80;;;;;;6188823;23;20153;-88
2022/01/07 13:02:55;;;;;;;5.20;3.70;;;8.70;74.80;;;;;;6189077;23;20237;-87
2022/01/07 13:05:40;;;;;;;7.82;2.80;;;8.50;74.70;;;;;;6188824;23;20180;-88
2022/01/07 13:08:14;;;;;;;3.45;2.30;;;8.50;75.00;;;;;;6188852;23;20173;-88